sensor_id;sensor_type;location;lat;lon;timestamp;P1;durP1;ratioP1;P2;durP2;ratioP2
19339;SDS011;9804;52.350;6.684;2022-07-29T00:02:05;3.75;;;1.92;;
19339;SDS011;9804;52.350;6.684;2022-07-29T00:04:30;3.85;;;1.85;;
19339;SDS011;9804;52.350;6.684;2022-07-29T00:06:58;3.95;;;1.70;;
19339;SDS011;9804;52.350;6.684;2022-07-29T00:09:23;3.55;;;1.40;;
19339;SDS011;9804;52.350;6.684;2022-07-29T00:11:49;3.33;;;1.70;;
19339;SDS011;9804;52.350;6.684;2022-07-29T00:14:14;3.47;;;1.20;;
19339;SDS011;9804;52.350;6.684;2022-07-29T00:16:40;2.63;;;1.00;;
19339;SDS011;9804;52.350;6.684;2022-07-29T00:19:05;4.18;;;1.40;;
19339;SDS011;9804;52.350;6.684;2022-07-29T00:21:30;2.80;;;1.30;;
19339;SDS011;9804;52.350;6.684;2022-07-29T00:23:55;3.75;;;1.40;;
19339;SDS011;9804;52.350;6.684;2022-07-29T00:26:21;3.35;;;1.27;;
19339;SDS011;9804;52.350;6.684;2022-07-29T00:28:46;3.28;;;1.42;;
19339;SDS011;9804;52.350;6.684;2022-07-29T00:31:12;6.82;;;1.60;;
19339;SDS011;9804;52.350;6.684;2022-07-29T00:33:37;3.47;;;1.50;;
19339;SDS011;9804;52.350;6.684;2022-07-29T00:36:03;4.97;;;2.63;;
19339;SDS011;9804;52.350;6.684;2022-07-29T00:38:28;3.67;;;1.63;;
19339;SDS011;9804;52.350;6.684;2022-07-29T00:40:54;4.72;;;1.25;;
19339;SDS011;9804;52.350;6.684;2022-07-29T00:43:19;2.88;;;1.60;;
19339;SDS011;9804;52.350;6.684;2022-07-29T00:45:44;4.93;;;1.20;;
19339;SDS011;9804;52.350;6.684;2022-07-29T00:48:11;4.00;;;1.40;;
19339;SDS011;9804;52.350;6.684;2022-07-29T00:50:36;4.78;;;1.60;;
19339;SDS011;9804;52.350;6.684;2022-07-29T00:53:03;2.65;;;1.27;;
19339;SDS011;9804;52.350;6.684;2022-07-29T00:55:30;4.45;;;1.98;;
19339;SDS011;9804;52.350;6.684;2022-07-29T00:57:56;5.65;;;1.63;;
19339;SDS011;9804;52.350;6.684;2022-07-29T01:00:23;3.80;;;1.40;;
19339;SDS011;9804;52.350;6.684;2022-07-29T01:02:50;3.13;;;1.42;;
19339;SDS011;9804;52.350;6.684;2022-07-29T01:05:21;2.88;;;1.30;;
19339;SDS011;9804;52.350;6.684;2022-07-29T01:07:48;5.57;;;1.65;;
19339;SDS011;9804;52.350;6.684;2022-07-29T01:10:16;5.47;;;1.45;;
19339;SDS011;9804;52.350;6.684;2022-07-29T01:12:44;3.47;;;1.30;;
19339;SDS011;9804;52.350;6.684;2022-07-29T01:15:12;3.83;;;1.40;;
19339;SDS011;9804;52.350;6.684;2022-07-29T01:17:46;1.65;;;1.30;;
19339;SDS011;9804;52.350;6.684;2022-07-29T01:20:19;2.40;;;1.30;;
19339;SDS011;9804;52.350;6.684;2022-07-29T01:31:03;5.13;;;1.52;;
19339;SDS011;9804;52.350;6.684;2022-07-29T01:33:31;3.92;;;2.00;;
19339;SDS011;9804;52.350;6.684;2022-07-29T01:36:14;3.50;;;1.30;;
19339;SDS011;9804;52.350;6.684;2022-07-29T01:38:53;1.70;;;1.48;;
19339;SDS011;9804;52.350;6.684;2022-07-29T01:41:23;2.83;;;1.40;;
19339;SDS011;9804;52.350;6.684;2022-07-29T01:44:02;3.05;;;1.48;;
19339;SDS011;9804;52.350;6.684;2022-07-29T01:46:38;3.92;;;1.40;;
19339;SDS011;9804;52.350;6.684;2022-07-29T01:49:08;4.50;;;1.17;;
19339;SDS011;9804;52.350;6.684;2022-07-29T01:51:43;6.82;;;1.70;;
19339;SDS011;9804;52.350;6.684;2022-07-29T01:54:26;5.32;;;1.70;;
19339;SDS011;9804;52.350;6.684;2022-07-29T01:56:57;7.07;;;1.60;;
19339;SDS011;9804;52.350;6.684;2022-07-29T01:59:24;5.75;;;1.70;;
19339;SDS011;9804;52.350;6.684;2022-07-29T02:01:52;6.93;;;1.85;;
19339;SDS011;9804;52.350;6.684;2022-07-29T02:04:19;4.72;;;1.50;;
19339;SDS011;9804;52.350;6.684;2022-07-29T02:06:45;3.28;;;1.40;;
19339;SDS011;9804;52.350;6.684;2022-07-29T02:09:14;4.70;;;1.65;;
19339;SDS011;9804;52.350;6.684;2022-07-29T02:11:40;7.07;;;1.70;;
19339;SDS011;9804;52.350;6.684;2022-07-29T02:14:12;5.97;;;1.50;;
19339;SDS011;9804;52.350;6.684;2022-07-29T02:16:40;2.80;;;1.15;;
19339;SDS011;9804;52.350;6.684;2022-07-29T02:19:06;4.18;;;1.38;;
19339;SDS011;9804;52.350;6.684;2022-07-29T02:21:34;4.50;;;1.58;;
19339;SDS011;9804;52.350;6.684;2022-07-29T02:24:00;4.28;;;1.55;;
19339;SDS011;9804;52.350;6.684;2022-07-29T02:26:27;6.50;;;1.35;;
19339;SDS011;9804;52.350;6.684;2022-07-29T02:28:54;3.47;;;1.25;;
19339;SDS011;9804;52.350;6.684;2022-07-29T02:31:22;4.97;;;1.70;;
19339;SDS011;9804;52.350;6.684;2022-07-29T02:33:50;2.97;;;1.33;;
19339;SDS011;9804;52.350;6.684;2022-07-29T02:36:17;4.43;;;1.40;;
19339;SDS011;9804;52.350;6.684;2022-07-29T02:38:46;3.80;;;1.58;;
19339;SDS011;9804;52.350;6.684;2022-07-29T02:41:40;4.13;;;1.30;;
19339;SDS011;9804;52.350;6.684;2022-07-29T02:44:18;2.38;;;1.25;;
19339;SDS011;9804;52.350;6.684;2022-07-29T02:46:48;5.10;;;1.63;;
19339;SDS011;9804;52.350;6.684;2022-07-29T02:52:00;3.50;;;1.27;;
19339;SDS011;9804;52.350;6.684;2022-07-29T02:54:37;4.50;;;1.75;;
19339;SDS011;9804;52.350;6.684;2022-07-29T02:57:18;4.88;;;2.28;;
19339;SDS011;9804;52.350;6.684;2022-07-29T02:59:47;4.18;;;1.63;;
19339;SDS011;9804;52.350;6.684;2022-07-29T03:02:16;5.07;;;2.08;;
19339;SDS011;9804;52.350;6.684;2022-07-29T03:04:43;3.70;;;1.48;;
19339;SDS011;9804;52.350;6.684;2022-07-29T03:07:10;5.15;;;1.60;;
19339;SDS011;9804;52.350;6.684;2022-07-29T03:09:37;3.80;;;1.50;;
19339;SDS011;9804;52.350;6.684;2022-07-29T03:12:04;3.17;;;1.60;;
19339;SDS011;9804;52.350;6.684;2022-07-29T03:14:30;4.50;;;1.48;;
19339;SDS011;9804;52.350;6.684;2022-07-29T03:16:56;4.72;;;1.70;;
19339;SDS011;9804;52.350;6.684;2022-07-29T03:19:22;4.07;;;1.52;;
19339;SDS011;9804;52.350;6.684;2022-07-29T03:21:48;5.00;;;1.50;;
19339;SDS011;9804;52.350;6.684;2022-07-29T03:26:56;3.80;;;1.70;;
19339;SDS011;9804;52.350;6.684;2022-07-29T03:29:22;5.57;;;1.55;;
19339;SDS011;9804;52.350;6.684;2022-07-29T03:31:48;4.22;;;1.65;;
19339;SDS011;9804;52.350;6.684;2022-07-29T03:34:14;2.35;;;1.63;;
19339;SDS011;9804;52.350;6.684;2022-07-29T03:36:39;4.45;;;1.70;;
19339;SDS011;9804;52.350;6.684;2022-07-29T03:39:04;3.53;;;1.70;;
19339;SDS011;9804;52.350;6.684;2022-07-29T03:41:31;3.40;;;1.60;;
19339;SDS011;9804;52.350;6.684;2022-07-29T03:43:57;3.72;;;1.52;;
19339;SDS011;9804;52.350;6.684;2022-07-29T03:46:23;3.53;;;1.50;;
19339;SDS011;9804;52.350;6.684;2022-07-29T03:48:55;3.00;;;2.08;;
19339;SDS011;9804;52.350;6.684;2022-07-29T03:51:25;2.22;;;1.50;;
19339;SDS011;9804;52.350;6.684;2022-07-29T03:53:51;2.05;;;1.40;;
19339;SDS011;9804;52.350;6.684;2022-07-29T03:56:16;3.53;;;1.38;;
19339;SDS011;9804;52.350;6.684;2022-07-29T03:58:45;4.78;;;2.05;;
19339;SDS011;9804;52.350;6.684;2022-07-29T04:01:11;4.43;;;1.88;;
19339;SDS011;9804;52.350;6.684;2022-07-29T04:03:38;3.78;;;1.80;;
19339;SDS011;9804;52.350;6.684;2022-07-29T04:06:04;5.55;;;1.55;;
19339;SDS011;9804;52.350;6.684;2022-07-29T04:08:32;8.32;;;1.92;;
19339;SDS011;9804;52.350;6.684;2022-07-29T04:10:58;6.18;;;1.48;;
19339;SDS011;9804;52.350;6.684;2022-07-29T04:13:24;3.72;;;1.42;;
19339;SDS011;9804;52.350;6.684;2022-07-29T04:15:49;3.67;;;1.70;;
19339;SDS011;9804;52.350;6.684;2022-07-29T04:18:14;4.35;;;1.60;;
19339;SDS011;9804;52.350;6.684;2022-07-29T04:20:40;5.13;;;1.67;;
19339;SDS011;9804;52.350;6.684;2022-07-29T04:23:05;4.95;;;1.58;;
19339;SDS011;9804;52.350;6.684;2022-07-29T04:25:31;6.72;;;2.00;;
19339;SDS011;9804;52.350;6.684;2022-07-29T04:27:56;2.72;;;1.55;;
19339;SDS011;9804;52.350;6.684;2022-07-29T04:30:27;3.75;;;1.45;;
19339;SDS011;9804;52.350;6.684;2022-07-29T04:32:53;4.00;;;1.67;;
19339;SDS011;9804;52.350;6.684;2022-07-29T04:35:19;5.07;;;1.73;;
19339;SDS011;9804;52.350;6.684;2022-07-29T04:37:44;3.20;;;1.80;;
19339;SDS011;9804;52.350;6.684;2022-07-29T04:40:10;4.93;;;1.75;;
19339;SDS011;9804;52.350;6.684;2022-07-29T04:42:36;5.05;;;1.80;;
19339;SDS011;9804;52.350;6.684;2022-07-29T04:45:02;2.20;;;1.40;;
19339;SDS011;9804;52.350;6.684;2022-07-29T04:47:27;3.83;;;1.70;;
19339;SDS011;9804;52.350;6.684;2022-07-29T04:49:53;6.25;;;1.73;;
19339;SDS011;9804;52.350;6.684;2022-07-29T04:52:18;4.43;;;1.65;;
19339;SDS011;9804;52.350;6.684;2022-07-29T04:54:43;2.97;;;1.40;;
19339;SDS011;9804;52.350;6.684;2022-07-29T04:57:09;3.80;;;1.80;;
19339;SDS011;9804;52.350;6.684;2022-07-29T04:59:34;4.82;;;1.63;;
19339;SDS011;9804;52.350;6.684;2022-07-29T05:01:59;3.92;;;1.80;;
19339;SDS011;9804;52.350;6.684;2022-07-29T05:04:25;3.28;;;1.40;;
19339;SDS011;9804;52.350;6.684;2022-07-29T05:06:50;2.78;;;1.52;;
19339;SDS011;9804;52.350;6.684;2022-07-29T05:09:15;3.08;;;1.40;;
19339;SDS011;9804;52.350;6.684;2022-07-29T05:11:41;5.10;;;2.22;;
19339;SDS011;9804;52.350;6.684;2022-07-29T05:14:06;5.32;;;1.50;;
19339;SDS011;9804;52.350;6.684;2022-07-29T05:16:31;2.40;;;1.75;;
19339;SDS011;9804;52.350;6.684;2022-07-29T05:18:57;3.30;;;1.75;;
19339;SDS011;9804;52.350;6.684;2022-07-29T05:21:22;2.88;;;1.60;;
19339;SDS011;9804;52.350;6.684;2022-07-29T05:23:47;5.20;;;1.85;;
19339;SDS011;9804;52.350;6.684;2022-07-29T05:26:13;2.47;;;1.58;;
19339;SDS011;9804;52.350;6.684;2022-07-29T05:28:38;5.03;;;2.10;;
19339;SDS011;9804;52.350;6.684;2022-07-29T05:31:03;6.03;;;2.20;;
19339;SDS011;9804;52.350;6.684;2022-07-29T05:33:29;2.25;;;1.88;;
19339;SDS011;9804;52.350;6.684;2022-07-29T05:35:54;5.03;;;1.42;;
19339;SDS011;9804;52.350;6.684;2022-07-29T05:38:20;6.35;;;1.90;;
19339;SDS011;9804;52.350;6.684;2022-07-29T05:40:45;8.57;;;2.35;;
19339;SDS011;9804;52.350;6.684;2022-07-29T05:43:11;6.10;;;1.95;;
19339;SDS011;9804;52.350;6.684;2022-07-29T05:45:36;2.70;;;1.60;;
19339;SDS011;9804;52.350;6.684;2022-07-29T05:48:03;6.00;;;2.08;;
19339;SDS011;9804;52.350;6.684;2022-07-29T05:50:29;4.60;;;1.80;;
19339;SDS011;9804;52.350;6.684;2022-07-29T05:52:54;4.65;;;1.67;;
19339;SDS011;9804;52.350;6.684;2022-07-29T05:55:19;6.70;;;1.98;;
19339;SDS011;9804;52.350;6.684;2022-07-29T05:57:45;5.63;;;1.85;;
19339;SDS011;9804;52.350;6.684;2022-07-29T06:00:10;5.55;;;1.90;;
19339;SDS011;9804;52.350;6.684;2022-07-29T06:02:36;4.00;;;1.63;;
19339;SDS011;9804;52.350;6.684;2022-07-29T06:05:01;3.72;;;1.75;;
19339;SDS011;9804;52.350;6.684;2022-07-29T06:07:27;3.10;;;1.75;;
19339;SDS011;9804;52.350;6.684;2022-07-29T06:09:52;5.25;;;1.90;;
19339;SDS011;9804;52.350;6.684;2022-07-29T06:12:18;2.97;;;1.80;;
19339;SDS011;9804;52.350;6.684;2022-07-29T06:14:44;4.38;;;2.13;;
19339;SDS011;9804;52.350;6.684;2022-07-29T06:17:10;4.53;;;1.77;;
19339;SDS011;9804;52.350;6.684;2022-07-29T06:19:36;7.03;;;1.75;;
19339;SDS011;9804;52.350;6.684;2022-07-29T06:22:02;3.15;;;2.10;;
19339;SDS011;9804;52.350;6.684;2022-07-29T06:24:27;3.63;;;2.10;;
19339;SDS011;9804;52.350;6.684;2022-07-29T06:26:53;7.28;;;2.10;;
19339;SDS011;9804;52.350;6.684;2022-07-29T06:29:18;5.05;;;1.90;;
19339;SDS011;9804;52.350;6.684;2022-07-29T06:31:43;4.95;;;1.90;;
19339;SDS011;9804;52.350;6.684;2022-07-29T06:34:09;6.68;;;2.17;;
19339;SDS011;9804;52.350;6.684;2022-07-29T06:36:35;3.08;;;1.73;;
19339;SDS011;9804;52.350;6.684;2022-07-29T06:39:03;4.07;;;2.30;;
19339;SDS011;9804;52.350;6.684;2022-07-29T06:41:30;3.25;;;2.10;;
19339;SDS011;9804;52.350;6.684;2022-07-29T06:43:55;7.18;;;2.30;;
19339;SDS011;9804;52.350;6.684;2022-07-29T06:46:21;4.45;;;2.17;;
19339;SDS011;9804;52.350;6.684;2022-07-29T06:48:47;5.85;;;2.50;;
19339;SDS011;9804;52.350;6.684;2022-07-29T06:51:13;4.75;;;2.67;;
19339;SDS011;9804;52.350;6.684;2022-07-29T06:53:38;5.57;;;2.40;;
19339;SDS011;9804;52.350;6.684;2022-07-29T06:56:05;6.03;;;3.00;;
19339;SDS011;9804;52.350;6.684;2022-07-29T06:58:33;7.03;;;2.85;;
19339;SDS011;9804;52.350;6.684;2022-07-29T07:01:01;4.65;;;2.80;;
19339;SDS011;9804;52.350;6.684;2022-07-29T07:03:28;4.70;;;3.13;;
19339;SDS011;9804;52.350;6.684;2022-07-29T07:05:53;6.60;;;3.03;;
19339;SDS011;9804;52.350;6.684;2022-07-29T07:08:20;5.65;;;3.10;;
19339;SDS011;9804;52.350;6.684;2022-07-29T07:10:47;6.50;;;2.80;;
19339;SDS011;9804;52.350;6.684;2022-07-29T07:13:12;5.82;;;3.10;;
19339;SDS011;9804;52.350;6.684;2022-07-29T07:15:38;6.93;;;3.00;;
19339;SDS011;9804;52.350;6.684;2022-07-29T07:18:04;7.40;;;3.45;;
19339;SDS011;9804;52.350;6.684;2022-07-29T07:20:33;5.68;;;3.28;;
19339;SDS011;9804;52.350;6.684;2022-07-29T07:23:00;6.40;;;3.70;;
19339;SDS011;9804;52.350;6.684;2022-07-29T07:25:25;6.25;;;3.20;;
19339;SDS011;9804;52.350;6.684;2022-07-29T07:27:51;9.85;;;4.28;;
19339;SDS011;9804;52.350;6.684;2022-07-29T07:30:16;6.75;;;3.42;;
19339;SDS011;9804;52.350;6.684;2022-07-29T07:32:42;8.88;;;3.53;;
19339;SDS011;9804;52.350;6.684;2022-07-29T07:35:08;7.40;;;3.50;;
19339;SDS011;9804;52.350;6.684;2022-07-29T07:37:34;10.55;;;3.78;;
19339;SDS011;9804;52.350;6.684;2022-07-29T07:39:59;7.22;;;3.70;;
19339;SDS011;9804;52.350;6.684;2022-07-29T07:42:25;4.45;;;2.97;;
19339;SDS011;9804;52.350;6.684;2022-07-29T07:44:51;5.90;;;3.90;;
19339;SDS011;9804;52.350;6.684;2022-07-29T07:47:16;11.55;;;4.75;;
19339;SDS011;9804;52.350;6.684;2022-07-29T07:49:45;10.93;;;4.07;;
19339;SDS011;9804;52.350;6.684;2022-07-29T07:52:14;6.40;;;3.88;;
19339;SDS011;9804;52.350;6.684;2022-07-29T07:54:41;8.13;;;3.65;;
19339;SDS011;9804;52.350;6.684;2022-07-29T07:57:07;6.38;;;4.00;;
19339;SDS011;9804;52.350;6.684;2022-07-29T07:59:33;8.77;;;3.30;;
19339;SDS011;9804;52.350;6.684;2022-07-29T08:01:58;5.32;;;3.28;;
19339;SDS011;9804;52.350;6.684;2022-07-29T08:04:25;7.75;;;3.13;;
19339;SDS011;9804;52.350;6.684;2022-07-29T08:06:50;8.02;;;3.00;;
19339;SDS011;9804;52.350;6.684;2022-07-29T08:09:15;4.65;;;3.40;;
19339;SDS011;9804;52.350;6.684;2022-07-29T08:11:41;3.72;;;2.80;;
19339;SDS011;9804;52.350;6.684;2022-07-29T08:14:06;4.80;;;3.40;;
19339;SDS011;9804;52.350;6.684;2022-07-29T08:16:32;4.97;;;3.42;;
19339;SDS011;9804;52.350;6.684;2022-07-29T08:18:57;5.05;;;3.10;;
19339;SDS011;9804;52.350;6.684;2022-07-29T08:21:23;8.25;;;3.25;;
19339;SDS011;9804;52.350;6.684;2022-07-29T08:23:49;7.15;;;3.20;;
19339;SDS011;9804;52.350;6.684;2022-07-29T08:26:18;7.20;;;3.45;;
19339;SDS011;9804;52.350;6.684;2022-07-29T08:28:44;6.68;;;3.20;;
19339;SDS011;9804;52.350;6.684;2022-07-29T08:31:11;6.40;;;3.40;;
19339;SDS011;9804;52.350;6.684;2022-07-29T08:33:37;4.82;;;3.67;;
19339;SDS011;9804;52.350;6.684;2022-07-29T08:36:03;4.50;;;3.88;;
19339;SDS011;9804;52.350;6.684;2022-07-29T08:38:28;6.13;;;4.03;;
19339;SDS011;9804;52.350;6.684;2022-07-29T08:40:54;8.02;;;4.28;;
19339;SDS011;9804;52.350;6.684;2022-07-29T08:43:19;9.05;;;4.45;;
19339;SDS011;9804;52.350;6.684;2022-07-29T08:45:49;10.50;;;4.90;;
19339;SDS011;9804;52.350;6.684;2022-07-29T08:48:17;5.25;;;4.00;;
19339;SDS011;9804;52.350;6.684;2022-07-29T08:50:44;7.78;;;4.53;;
19339;SDS011;9804;52.350;6.684;2022-07-29T08:53:11;6.38;;;4.50;;
19339;SDS011;9804;52.350;6.684;2022-07-29T08:55:45;7.35;;;4.90;;
19339;SDS011;9804;52.350;6.684;2022-07-29T08:58:13;7.70;;;4.70;;
19339;SDS011;9804;52.350;6.684;2022-07-29T09:00:41;6.38;;;4.57;;
19339;SDS011;9804;52.350;6.684;2022-07-29T09:03:08;10.13;;;5.25;;
19339;SDS011;9804;52.350;6.684;2022-07-29T09:05:37;8.20;;;4.57;;
19339;SDS011;9804;52.350;6.684;2022-07-29T09:08:06;6.15;;;3.95;;
19339;SDS011;9804;52.350;6.684;2022-07-29T09:10:34;6.63;;;4.47;;
19339;SDS011;9804;52.350;6.684;2022-07-29T09:13:00;8.30;;;5.22;;
19339;SDS011;9804;52.350;6.684;2022-07-29T09:15:26;5.72;;;4.30;;
19339;SDS011;9804;52.350;6.684;2022-07-29T09:17:51;5.68;;;4.18;;
19339;SDS011;9804;52.350;6.684;2022-07-29T09:20:17;7.88;;;4.10;;
19339;SDS011;9804;52.350;6.684;2022-07-29T09:22:44;5.90;;;4.72;;
19339;SDS011;9804;52.350;6.684;2022-07-29T09:25:14;7.97;;;4.47;;
19339;SDS011;9804;52.350;6.684;2022-07-29T09:27:39;7.07;;;4.38;;
19339;SDS011;9804;52.350;6.684;2022-07-29T09:30:08;5.15;;;4.68;;
19339;SDS011;9804;52.350;6.684;2022-07-29T09:32:54;8.98;;;4.78;;
19339;SDS011;9804;52.350;6.684;2022-07-29T09:35:21;10.55;;;4.38;;
19339;SDS011;9804;52.350;6.684;2022-07-29T09:37:48;9.73;;;4.82;;
19339;SDS011;9804;52.350;6.684;2022-07-29T09:40:18;8.15;;;4.68;;
19339;SDS011;9804;52.350;6.684;2022-07-29T09:42:45;11.95;;;4.80;;
19339;SDS011;9804;52.350;6.684;2022-07-29T09:45:11;7.78;;;4.65;;
19339;SDS011;9804;52.350;6.684;2022-07-29T09:47:47;7.00;;;3.50;;
19339;SDS011;9804;52.350;6.684;2022-07-29T09:50:16;7.78;;;5.00;;
19339;SDS011;9804;52.350;6.684;2022-07-29T09:52:48;6.93;;;4.68;;
19339;SDS011;9804;52.350;6.684;2022-07-29T09:55:15;6.88;;;3.97;;
19339;SDS011;9804;52.350;6.684;2022-07-29T09:57:41;8.02;;;4.18;;
19339;SDS011;9804;52.350;6.684;2022-07-29T10:00:08;10.10;;;4.68;;
19339;SDS011;9804;52.350;6.684;2022-07-29T10:02:36;7.03;;;4.95;;
19339;SDS011;9804;52.350;6.684;2022-07-29T10:05:03;9.07;;;4.60;;
19339;SDS011;9804;52.350;6.684;2022-07-29T10:07:49;7.10;;;4.55;;
19339;SDS011;9804;52.350;6.684;2022-07-29T10:10:26;6.72;;;4.47;;
19339;SDS011;9804;52.350;6.684;2022-07-29T10:13:03;10.38;;;4.85;;
19339;SDS011;9804;52.350;6.684;2022-07-29T10:15:40;8.15;;;5.18;;
19339;SDS011;9804;52.350;6.684;2022-07-29T10:18:08;9.00;;;5.43;;
19339;SDS011;9804;52.350;6.684;2022-07-29T10:20:35;8.23;;;5.25;;
19339;SDS011;9804;52.350;6.684;2022-07-29T10:23:00;7.60;;;4.55;;
19339;SDS011;9804;52.350;6.684;2022-07-29T10:25:26;9.52;;;4.97;;
19339;SDS011;9804;52.350;6.684;2022-07-29T10:27:52;8.65;;;5.00;;
19339;SDS011;9804;52.350;6.684;2022-07-29T10:30:18;5.22;;;4.20;;
19339;SDS011;9804;52.350;6.684;2022-07-29T10:38:43;9.32;;;4.45;;
19339;SDS011;9804;52.350;6.684;2022-07-29T10:46:38;8.10;;;4.53;;
19339;SDS011;9804;52.350;6.684;2022-07-29T10:49:06;6.63;;;4.15;;
19339;SDS011;9804;52.350;6.684;2022-07-29T10:51:55;9.18;;;4.50;;
19339;SDS011;9804;52.350;6.684;2022-07-29T10:59:41;6.78;;;3.70;;
19339;SDS011;9804;52.350;6.684;2022-07-29T11:05:05;13.40;;;4.25;;
19339;SDS011;9804;52.350;6.684;2022-07-29T11:10:48;7.90;;;4.53;;
19339;SDS011;9804;52.350;6.684;2022-07-29T11:16:08;8.25;;;3.95;;
19339;SDS011;9804;52.350;6.684;2022-07-29T11:18:34;5.93;;;3.90;;
19339;SDS011;9804;52.350;6.684;2022-07-29T11:20:59;6.53;;;4.38;;
19339;SDS011;9804;52.350;6.684;2022-07-29T11:23:34;9.18;;;4.40;;
19339;SDS011;9804;52.350;6.684;2022-07-29T11:26:17;10.02;;;4.38;;
19339;SDS011;9804;52.350;6.684;2022-07-29T11:31:34;8.20;;;4.65;;
19339;SDS011;9804;52.350;6.684;2022-07-29T11:39:31;9.48;;;4.07;;
19339;SDS011;9804;52.350;6.684;2022-07-29T11:44:53;9.05;;;3.97;;
19339;SDS011;9804;52.350;6.684;2022-07-29T11:47:19;8.27;;;3.97;;
19339;SDS011;9804;52.350;6.684;2022-07-29T11:49:45;7.60;;;3.47;;
19339;SDS011;9804;52.350;6.684;2022-07-29T11:52:10;8.98;;;3.92;;
19339;SDS011;9804;52.350;6.684;2022-07-29T11:54:36;5.25;;;3.75;;
19339;SDS011;9804;52.350;6.684;2022-07-29T11:57:06;8.20;;;4.10;;
19339;SDS011;9804;52.350;6.684;2022-07-29T11:59:31;9.48;;;3.20;;
19339;SDS011;9804;52.350;6.684;2022-07-29T12:02:04;7.05;;;3.95;;
19339;SDS011;9804;52.350;6.684;2022-07-29T12:04:29;7.72;;;3.67;;
19339;SDS011;9804;52.350;6.684;2022-07-29T12:06:55;7.05;;;3.35;;
19339;SDS011;9804;52.350;6.684;2022-07-29T12:09:22;9.68;;;3.22;;
19339;SDS011;9804;52.350;6.684;2022-07-29T12:11:48;6.65;;;2.95;;
19339;SDS011;9804;52.350;6.684;2022-07-29T12:14:39;5.93;;;2.58;;
19339;SDS011;9804;52.350;6.684;2022-07-29T12:17:24;8.50;;;2.80;;
19339;SDS011;9804;52.350;6.684;2022-07-29T12:19:54;6.40;;;2.50;;
19339;SDS011;9804;52.350;6.684;2022-07-29T12:22:34;9.73;;;2.88;;
19339;SDS011;9804;52.350;6.684;2022-07-29T12:25:09;7.47;;;3.17;;
19339;SDS011;9804;52.350;6.684;2022-07-29T12:27:40;5.47;;;2.90;;
19339;SDS011;9804;52.350;6.684;2022-07-29T12:30:10;5.95;;;3.33;;
19339;SDS011;9804;52.350;6.684;2022-07-29T12:32:47;6.38;;;3.25;;
19339;SDS011;9804;52.350;6.684;2022-07-29T12:35:17;5.45;;;3.25;;
19339;SDS011;9804;52.350;6.684;2022-07-29T12:37:47;6.05;;;3.38;;
19339;SDS011;9804;52.350;6.684;2022-07-29T12:40:15;5.68;;;2.95;;
19339;SDS011;9804;52.350;6.684;2022-07-29T12:42:42;7.82;;;3.53;;
19339;SDS011;9804;52.350;6.684;2022-07-29T12:45:47;5.93;;;3.13;;
19339;SDS011;9804;52.350;6.684;2022-07-29T12:48:22;6.30;;;3.20;;
19339;SDS011;9804;52.350;6.684;2022-07-29T12:51:01;7.43;;;3.25;;
19339;SDS011;9804;52.350;6.684;2022-07-29T12:53:28;5.45;;;2.92;;
19339;SDS011;9804;52.350;6.684;2022-07-29T12:55:54;7.13;;;3.25;;
19339;SDS011;9804;52.350;6.684;2022-07-29T12:58:36;7.60;;;3.03;;
19339;SDS011;9804;52.350;6.684;2022-07-29T13:03:44;9.38;;;2.53;;
19339;SDS011;9804;52.350;6.684;2022-07-29T13:11:36;8.00;;;3.03;;
19339;SDS011;9804;52.350;6.684;2022-07-29T13:14:04;6.30;;;2.80;;
19339;SDS011;9804;52.350;6.684;2022-07-29T13:16:30;6.72;;;2.65;;
19339;SDS011;9804;52.350;6.684;2022-07-29T13:19:09;5.97;;;2.63;;
19339;SDS011;9804;52.350;6.684;2022-07-29T13:21:36;8.02;;;2.30;;
19339;SDS011;9804;52.350;6.684;2022-07-29T13:24:02;7.40;;;2.38;;
19339;SDS011;9804;52.350;6.684;2022-07-29T13:26:28;10.63;;;2.78;;
19339;SDS011;9804;52.350;6.684;2022-07-29T13:28:54;5.93;;;2.28;;
19339;SDS011;9804;52.350;6.684;2022-07-29T13:31:20;7.07;;;1.65;;
19339;SDS011;9804;52.350;6.684;2022-07-29T13:33:46;5.97;;;1.92;;
19339;SDS011;9804;52.350;6.684;2022-07-29T13:36:12;5.55;;;1.77;;
19339;SDS011;9804;52.350;6.684;2022-07-29T13:38:38;4.75;;;2.20;;
19339;SDS011;9804;52.350;6.684;2022-07-29T13:41:03;3.33;;;1.63;;
19339;SDS011;9804;52.350;6.684;2022-07-29T13:43:28;7.75;;;1.90;;
19339;SDS011;9804;52.350;6.684;2022-07-29T13:45:54;4.22;;;1.75;;
19339;SDS011;9804;52.350;6.684;2022-07-29T13:48:20;3.50;;;1.80;;
19339;SDS011;9804;52.350;6.684;2022-07-29T13:50:45;4.18;;;2.10;;
19339;SDS011;9804;52.350;6.684;2022-07-29T13:53:11;4.97;;;1.90;;
19339;SDS011;9804;52.350;6.684;2022-07-29T13:55:37;5.57;;;1.92;;
19339;SDS011;9804;52.350;6.684;2022-07-29T13:58:02;6.10;;;2.10;;
19339;SDS011;9804;52.350;6.684;2022-07-29T14:00:28;3.90;;;2.00;;
19339;SDS011;9804;52.350;6.684;2022-07-29T14:02:53;7.32;;;1.63;;
19339;SDS011;9804;52.350;6.684;2022-07-29T14:05:19;4.15;;;1.55;;
19339;SDS011;9804;52.350;6.684;2022-07-29T14:07:44;4.60;;;2.00;;
19339;SDS011;9804;52.350;6.684;2022-07-29T14:10:10;4.70;;;1.73;;
19339;SDS011;9804;52.350;6.684;2022-07-29T14:12:35;3.78;;;1.80;;
19339;SDS011;9804;52.350;6.684;2022-07-29T14:15:01;3.10;;;1.63;;
19339;SDS011;9804;52.350;6.684;2022-07-29T14:17:26;4.55;;;1.70;;
19339;SDS011;9804;52.350;6.684;2022-07-29T14:19:51;5.82;;;1.73;;
19339;SDS011;9804;52.350;6.684;2022-07-29T14:22:17;4.07;;;1.98;;
19339;SDS011;9804;52.350;6.684;2022-07-29T14:24:43;5.45;;;1.92;;
19339;SDS011;9804;52.350;6.684;2022-07-29T14:27:09;5.32;;;2.08;;
19339;SDS011;9804;52.350;6.684;2022-07-29T14:29:34;6.03;;;2.28;;
19339;SDS011;9804;52.350;6.684;2022-07-29T14:32:00;6.78;;;1.75;;
19339;SDS011;9804;52.350;6.684;2022-07-29T14:34:26;5.35;;;1.85;;
19339;SDS011;9804;52.350;6.684;2022-07-29T14:36:51;5.65;;;1.67;;
19339;SDS011;9804;52.350;6.684;2022-07-29T14:39:18;3.10;;;1.73;;
19339;SDS011;9804;52.350;6.684;2022-07-29T14:41:43;6.35;;;2.13;;
19339;SDS011;9804;52.350;6.684;2022-07-29T14:44:09;8.73;;;2.53;;
19339;SDS011;9804;52.350;6.684;2022-07-29T14:46:34;7.57;;;1.90;;
19339;SDS011;9804;52.350;6.684;2022-07-29T14:49:00;4.90;;;1.70;;
19339;SDS011;9804;52.350;6.684;2022-07-29T14:51:25;8.95;;;1.65;;
19339;SDS011;9804;52.350;6.684;2022-07-29T14:53:50;7.80;;;1.80;;
19339;SDS011;9804;52.350;6.684;2022-07-29T14:56:16;3.47;;;1.30;;
19339;SDS011;9804;52.350;6.684;2022-07-29T14:58:41;4.47;;;1.70;;
19339;SDS011;9804;52.350;6.684;2022-07-29T15:01:07;5.78;;;1.65;;
19339;SDS011;9804;52.350;6.684;2022-07-29T15:03:32;5.32;;;1.98;;
19339;SDS011;9804;52.350;6.684;2022-07-29T15:05:58;8.82;;;1.85;;
19339;SDS011;9804;52.350;6.684;2022-07-29T15:08:23;7.10;;;2.47;;
19339;SDS011;9804;52.350;6.684;2022-07-29T15:10:50;3.25;;;1.65;;
19339;SDS011;9804;52.350;6.684;2022-07-29T15:13:15;5.28;;;2.30;;
19339;SDS011;9804;52.350;6.684;2022-07-29T15:15:41;6.93;;;1.70;;
19339;SDS011;9804;52.350;6.684;2022-07-29T15:18:06;2.47;;;1.40;;
19339;SDS011;9804;52.350;6.684;2022-07-29T15:20:32;12.25;;;2.03;;
19339;SDS011;9804;52.350;6.684;2022-07-29T15:22:57;6.22;;;1.75;;
19339;SDS011;9804;52.350;6.684;2022-07-29T15:25:23;2.95;;;1.40;;
19339;SDS011;9804;52.350;6.684;2022-07-29T15:27:50;6.25;;;1.98;;
19339;SDS011;9804;52.350;6.684;2022-07-29T15:30:15;5.35;;;2.15;;
19339;SDS011;9804;52.350;6.684;2022-07-29T15:32:42;8.50;;;2.10;;
19339;SDS011;9804;52.350;6.684;2022-07-29T15:35:10;6.63;;;2.20;;
19339;SDS011;9804;52.350;6.684;2022-07-29T15:37:39;5.60;;;2.10;;
19339;SDS011;9804;52.350;6.684;2022-07-29T15:40:05;9.52;;;2.20;;
19339;SDS011;9804;52.350;6.684;2022-07-29T15:42:31;5.10;;;1.80;;
19339;SDS011;9804;52.350;6.684;2022-07-29T15:44:56;3.92;;;1.98;;
19339;SDS011;9804;52.350;6.684;2022-07-29T15:47:21;5.93;;;2.28;;
19339;SDS011;9804;52.350;6.684;2022-07-29T15:49:47;7.47;;;2.58;;
19339;SDS011;9804;52.350;6.684;2022-07-29T15:52:13;5.57;;;2.08;;
19339;SDS011;9804;52.350;6.684;2022-07-29T15:54:39;8.70;;;3.03;;
19339;SDS011;9804;52.350;6.684;2022-07-29T15:57:07;5.07;;;1.83;;
19339;SDS011;9804;52.350;6.684;2022-07-29T15:59:33;7.35;;;2.20;;
19339;SDS011;9804;52.350;6.684;2022-07-29T16:01:59;4.40;;;2.22;;